createdAt,value
2023-03-03T00:00:28.003Z,100210.10
2023-03-03T00:05:52.310Z,100208.16
2023-03-03T00:10:55.825Z,100202.06
2023-03-03T00:16:15.363Z,100194.42
2023-03-03T00:21:39.933Z,100187.24
2023-03-03T00:26:55.776Z,100188.80
2023-03-03T00:32:08.166Z,100192.67
2023-03-03T00:37:27.338Z,100202.17
2023-03-03T00:42:36.387Z,100192.83
2023-03-03T00:47:44.728Z,100190.20
2023-03-03T00:53:02.659Z,100188.95
2023-03-03T00:58:06.281Z,100191.12
2023-03-03T01:03:14.929Z,100177.36
2023-03-03T01:08:19.896Z,100171.88
2023-03-03T01:13:27.960Z,100170.09
2023-03-03T01:18:31.823Z,100156.41
2023-03-03T01:23:35.749Z,100142.96
2023-03-03T01:28:39.250Z,100126.27
2023-03-03T01:33:43.480Z,100120.02
2023-03-03T01:38:46.893Z,100115.55
2023-03-03T01:43:51.539Z,100117.39
2023-03-03T01:49:03.449Z,100113.28
2023-03-03T01:54:15.070Z,100123.70
2023-03-03T01:59:26.548Z,100129.32
2023-03-03T02:04:30.070Z,100123.73
2023-03-03T02:09:40.446Z,100115.37
2023-03-03T02:14:43.865Z,100113.66
2023-03-03T02:20:14.722Z,100107.17
2023-03-03T02:25:37.389Z,100097.83
2023-03-03T02:30:41.416Z,100097.30
2023-03-03T02:35:45.077Z,100090.49
2023-03-03T02:41:05.547Z,100090.12
2023-03-03T02:46:09.167Z,100091.83
2023-03-03T02:51:12.782Z,100090.27
2023-03-03T02:56:16.512Z,100089.66
2023-03-03T03:01:20.193Z,100092.30
2023-03-03T03:06:23.936Z,100093.23
2023-03-03T03:11:27.456Z,100089.30
2023-03-03T03:16:32.307Z,100081.89
2023-03-03T03:21:35.819Z,100081.44
2023-03-03T03:26:39.430Z,100079.44
2023-03-03T03:31:44.074Z,100074.91
2023-03-03T03:36:47.494Z,100073.36
2023-03-03T03:41:51.014Z,100072.19
2023-03-03T03:46:54.731Z,100055.42
2023-03-03T03:51:58.144Z,100052.94
2023-03-03T03:57:02.372Z,100063.31
2023-03-03T04:02:05.890Z,100063.79
2023-03-03T04:07:11.621Z,100075.36
2023-03-03T04:12:15.386Z,100075.23
2023-03-03T04:17:24.692Z,100066.44
2023-03-03T04:22:28.659Z,100059.42
2023-03-03T04:27:37.193Z,100043.30
2023-03-03T04:32:40.712Z,100036.36
2023-03-03T04:37:44.330Z,100033.49
2023-03-03T04:42:48.249Z,100027.48
2023-03-03T04:47:51.765Z,100023.32
2023-03-03T04:52:55.284Z,100030.89
2023-03-03T04:57:58.906Z,100034.35
2023-03-03T05:03:02.653Z,100039.10
2023-03-03T05:08:06.962Z,100059.92
2023-03-03T05:13:10.566Z,100054.48
2023-03-03T05:18:13.976Z,100051.79
2023-03-03T05:23:17.554Z,100051.67
2023-03-03T05:28:21.528Z,100054.56
2023-03-03T05:33:25.135Z,100056.52
2023-03-03T05:38:28.552Z,100061.98
2023-03-03T05:43:32.372Z,100056.70
2023-03-03T05:48:35.822Z,100053.34
2023-03-03T05:53:39.709Z,100067.46
2023-03-03T05:58:43.231Z,100075.00
2023-03-03T06:03:46.845Z,100075.90
2023-03-03T06:08:50.324Z,100072.96
2023-03-03T06:13:53.880Z,100077.68
2023-03-03T06:18:57.397Z,100075.14
2023-03-03T06:24:01.029Z,100078.45
2023-03-03T06:29:04.526Z,100075.55
2023-03-03T06:34:08.321Z,100063.37
2023-03-03T06:39:12.067Z,100065.02
2023-03-03T06:44:15.578Z,100078.73
2023-03-03T06:49:19.333Z,100084.02
2023-03-03T06:54:31.008Z,100086.45
2023-03-03T06:59:34.626Z,100092.59
2023-03-03T07:04:39.701Z,100094.56
2023-03-03T07:09:45.905Z,100097.66
2023-03-03T07:15:15.084Z,100103.54
2023-03-03T07:20:20.652Z,100101.06
2023-03-03T07:25:35.633Z,100114.64
2023-03-03T07:30:39.173Z,100115.29
2023-03-03T07:35:45.166Z,100117.34
2023-03-03T07:41:10.047Z,100130.34
2023-03-03T07:46:28.204Z,100122.21
2023-03-03T07:51:42.315Z,100124.91
2023-03-03T07:56:47.324Z,100120.30
2023-03-03T08:01:58.329Z,100121.45
2023-03-03T08:07:02.865Z,100128.30
2023-03-03T08:12:27.668Z,100127.11
2023-03-03T08:17:40.076Z,100124.35
2023-03-03T08:22:43.899Z,100117.33
2023-03-03T08:27:47.614Z,100114.27
2023-03-03T08:32:51.173Z,100109.82
2023-03-03T08:38:14.198Z,100097.88
2023-03-03T08:43:21.690Z,100094.23
2023-03-03T08:48:26.051Z,100090.38
2023-03-03T08:53:29.874Z,100085.34
2023-03-03T08:58:35.970Z,100083.27
2023-03-03T09:03:39.970Z,100086.00
2023-03-03T09:08:43.386Z,100095.02
2023-03-03T09:13:53.549Z,100092.35
2023-03-03T09:18:58.208Z,100087.42
2023-03-03T09:24:01.960Z,100088.46
2023-03-03T09:29:14.849Z,100085.73
2023-03-03T09:34:37.112Z,100088.19
2023-03-03T09:39:41.848Z,100089.05
2023-03-03T09:45:00.216Z,100091.88
2023-03-03T09:50:22.981Z,100085.13
2023-03-03T09:55:37.248Z,100077.20
2023-03-03T10:00:52.953Z,100076.32
2023-03-03T10:06:11.934Z,100081.25
2023-03-03T10:11:23.945Z,100090.36
2023-03-03T10:16:45.850Z,100084.58
2023-03-03T10:22:06.101Z,100086.17
2023-03-03T10:27:20.163Z,100080.87
2023-03-03T10:32:40.757Z,100068.16
2023-03-03T10:38:17.272Z,100065.45
2023-03-03T10:43:32.157Z,100064.61
2023-03-03T10:48:44.775Z,100064.14
2023-03-03T10:54:01.026Z,100055.96
2023-03-03T10:59:27.544Z,100055.55
2023-03-03T11:04:55.738Z,100050.53
2023-03-03T11:10:37.061Z,100045.99
2023-03-03T11:16:03.602Z,100044.16
2023-03-03T11:21:14.694Z,100042.15
2023-03-03T11:26:28.448Z,100044.70
2023-03-03T11:31:37.810Z,100043.51
2023-03-03T11:36:55.751Z,100035.55
2023-03-03T11:42:04.488Z,100026.16
2023-03-03T11:47:41.081Z,100018.88
2023-03-03T11:53:10.208Z,100019.86
2023-03-03T11:58:41.257Z,100018.92
2023-03-03T12:04:16.112Z,100007.09
2023-03-03T12:09:38.160Z,99997.20
2023-03-03T12:14:54.031Z,99996.60
2023-03-03T12:20:29.118Z,99994.52
2023-03-03T12:25:38.878Z,99993.73
2023-03-03T12:31:09.650Z,99985.89
2023-03-03T12:36:22.270Z,99973.88
2023-03-03T12:41:43.906Z,99972.34
2023-03-03T12:47:11.895Z,99971.45
2023-03-03T12:52:27.558Z,99965.38
2023-03-03T12:58:15.966Z,99955.71
2023-03-03T13:03:55.322Z,99949.31
2023-03-03T13:09:11.739Z,99942.35
2023-03-03T13:14:43.655Z,99944.90
2023-03-03T13:20:20.312Z,99944.20
2023-03-03T13:25:36.664Z,99949.68
2023-03-03T13:30:48.236Z,99936.27
2023-03-03T13:36:02.446Z,99930.45
2023-03-03T13:41:38.889Z,99929.31
2023-03-03T13:47:09.228Z,99925.67
2023-03-03T13:52:23.192Z,99921.30
2023-03-03T13:57:35.102Z,99920.51
2023-03-03T14:03:06.571Z,99919.43
2023-03-03T14:08:20.938Z,99918.77
2023-03-03T14:13:53.139Z,99909.06
2023-03-03T14:19:36.289Z,99911.43
2023-03-03T14:25:09.796Z,99904.37
2023-03-03T14:30:25.498Z,99892.08
2023-03-03T14:35:43.417Z,99878.93
2023-03-03T14:40:48.316Z,99878.28
2023-03-03T14:45:54.183Z,99864.33
2023-03-03T14:51:25.265Z,99858.67
2023-03-03T14:56:34.528Z,99848.45
2023-03-03T15:01:38.680Z,99851.69
2023-03-03T15:06:54.383Z,99849.64
2023-03-03T15:12:00.026Z,99847.35
2023-03-03T15:17:21.754Z,99844.52
2023-03-03T15:22:43.060Z,99841.73
2023-03-03T15:28:08.584Z,99839.40
2023-03-03T15:33:41.693Z,99827.59
2023-03-03T15:39:24.322Z,99824.52
2023-03-03T15:44:33.570Z,99820.68
2023-03-03T15:49:38.401Z,99820.84
2023-03-03T15:55:17.160Z,99813.35
2023-03-03T16:00:39.128Z,99809.16
2023-03-03T16:06:38.537Z,99808.59
2023-03-03T16:11:58.942Z,99802.70
2023-03-03T16:17:40.755Z,99797.39
2023-03-03T16:23:07.425Z,99785.83
2023-03-03T16:28:17.494Z,99779.73
2023-03-03T16:33:28.382Z,99777.42
2023-03-03T16:38:42.658Z,99778.54
2023-03-03T16:44:16.476Z,99776.27
2023-03-03T16:49:46.111Z,99776.52
2023-03-03T16:54:57.600Z,99770.61
2023-03-03T17:00:05.018Z,99772.48
2023-03-03T17:05:20.912Z,99760.21
2023-03-03T17:10:34.064Z,99748.89
2023-03-03T17:16:03.192Z,99755.23
2023-03-03T17:21:25.521Z,99755.44
2023-03-03T17:26:46.160Z,99754.87
2023-03-03T17:32:13.918Z,99744.78
2023-03-03T17:37:35.155Z,99729.60
2023-03-03T17:42:53.005Z,99723.59
2023-03-03T17:47:56.521Z,99724.22
2023-03-03T17:53:18.861Z,99721.17
2023-03-03T17:58:34.423Z,99713.91
2023-03-03T18:04:02.409Z,99701.98
2023-03-03T18:09:17.997Z,99715.83
2023-03-03T18:14:29.883Z,99711.61
2023-03-03T18:20:04.340Z,99721.40
2023-03-03T18:25:41.427Z,99713.36
2023-03-03T18:30:59.005Z,99707.81
2023-03-03T18:36:33.150Z,99705.85
2023-03-03T18:42:06.311Z,99695.81
2023-03-03T18:47:11.058Z,99693.27
2023-03-03T18:52:22.865Z,99693.64
2023-03-03T18:57:26.244Z,99691.86
2023-03-03T19:02:39.149Z,99695.90
2023-03-03T19:07:42.628Z,99695.88
2023-03-03T19:12:52.379Z,99696.23
2023-03-03T19:18:01.765Z,99686.46
2023-03-03T19:23:18.565Z,99676.71
2023-03-03T19:28:41.988Z,99677.15
2023-03-03T19:33:59.698Z,99670.19
2023-03-03T19:39:09.159Z,99656.63
2023-03-03T19:44:46.372Z,99649.62
2023-03-03T19:50:00.947Z,99643.71
2023-03-03T19:55:35.071Z,99647.28
2023-03-03T20:00:50.256Z,99648.00
2023-03-03T20:06:21.250Z,99632.17
2023-03-03T20:11:46.320Z,99621.57
2023-03-03T20:16:56.626Z,99611.00
2023-03-03T20:22:48.368Z,99604.68
2023-03-03T20:28:11.532Z,99595.09
2023-03-03T20:33:45.168Z,99594.45
2023-03-03T20:39:16.316Z,99591.08
2023-03-03T20:44:28.950Z,99574.91
2023-03-03T20:50:10.353Z,99561.45
2023-03-03T20:55:40.258Z,99545.65
2023-03-03T21:01:04.538Z,99536.64
2023-03-03T21:06:15.534Z,99527.65
2023-03-03T21:11:31.616Z,99515.56
2023-03-03T21:16:36.042Z,99504.79
2023-03-03T21:21:42.412Z,99495.64
2023-03-03T21:27:05.965Z,99525.74
2023-03-03T21:32:10.449Z,99526.14
2023-03-03T21:37:47.746Z,99530.11
2023-03-03T21:42:57.198Z,99520.78
2023-03-03T21:48:02.695Z,99501.27
2023-03-03T21:53:06.132Z,99503.67
2023-03-03T21:58:09.582Z,99502.37
2023-03-03T22:03:20.267Z,99502.67
2023-03-03T22:08:23.988Z,99481.27
2023-03-03T22:13:27.610Z,99485.71
2023-03-03T22:18:31.227Z,99481.86
2023-03-03T22:23:34.737Z,99471.05
2023-03-03T22:28:38.388Z,99443.27
2023-03-03T22:33:42.183Z,99439.58
2023-03-03T22:38:47.142Z,99409.33
2023-03-03T22:43:50.958Z,99396.13
2023-03-03T22:48:54.582Z,99396.00
2023-03-03T22:53:58.298Z,99391.15
2023-03-03T22:59:01.814Z,99379.84
2023-03-03T23:04:05.775Z,99364.34
2023-03-03T23:09:09.350Z,99352.63
2023-03-03T23:14:12.967Z,99346.17
2023-03-03T23:19:17.194Z,99342.31
2023-03-03T23:24:20.711Z,99345.52
2023-03-03T23:29:25.159Z,99348.30
2023-03-03T23:34:28.561Z,99346.56
2023-03-03T23:39:32.181Z,99333.09
2023-03-03T23:44:37.952Z,99326.89
2023-03-03T23:49:41.568Z,99326.61
2023-03-03T23:54:45.924Z,99325.87
2023-03-03T23:59:49.838Z,99315.00
